createdAt,value
2018-03-26T00:01:17.150Z,3.20
2018-03-26T00:03:50.808Z,3.20
2018-03-26T00:06:24.530Z,3.20
2018-03-26T00:08:59.070Z,3.40
2018-03-26T00:11:32.824Z,3.30
2018-03-26T00:14:06.725Z,3.40
2018-03-26T00:16:40.466Z,3.20
2018-03-26T00:19:14.326Z,3.30
2018-03-26T00:21:48.060Z,3.30
2018-03-26T00:24:22.571Z,3.30
2018-03-26T00:26:57.001Z,3.10
2018-03-26T00:29:30.875Z,3.10
2018-03-26T00:32:04.634Z,3.20
2018-03-26T00:34:39.154Z,3.10
2018-03-26T00:37:12.905Z,3.10
2018-03-26T00:39:46.649Z,3.00
2018-03-26T00:42:20.432Z,3.10
2018-03-26T00:44:54.955Z,3.00
2018-03-26T00:47:28.701Z,3.00
2018-03-26T00:50:02.486Z,3.00
2018-03-26T00:52:36.333Z,3.00
2018-03-26T00:55:10.086Z,3.00
2018-03-26T00:57:43.855Z,2.90
2018-03-26T01:00:18.398Z,3.00
2018-03-26T01:02:52.236Z,3.00
2018-03-26T01:05:26.128Z,2.90
2018-03-26T01:08:00.447Z,2.90
2018-03-26T01:10:34.278Z,3.00
2018-03-26T01:13:08.103Z,3.00
2018-03-26T01:15:41.792Z,3.00
2018-03-26T01:18:16.438Z,3.00
2018-03-26T01:20:50.028Z,3.00
2018-03-26T01:23:23.844Z,3.00
2018-03-26T01:25:57.606Z,2.80
2018-03-26T01:28:31.445Z,2.90
2018-03-26T01:31:05.182Z,2.90
2018-03-26T01:33:39.067Z,2.80
2018-03-26T01:36:13.598Z,2.90
2018-03-26T01:38:47.397Z,2.90
2018-03-26T01:41:21.249Z,2.80
2018-03-26T01:43:55.858Z,3.00
2018-03-26T01:46:29.454Z,2.90
2018-03-26T01:49:03.135Z,2.90
2018-03-26T01:51:36.974Z,2.80
2018-03-26T01:54:10.626Z,2.70
2018-03-26T01:56:44.330Z,2.70
2018-03-26T01:59:18.197Z,2.70
2018-03-26T02:01:51.938Z,2.70
2018-03-26T02:04:25.698Z,2.70
2018-03-26T02:07:00.204Z,2.60
2018-03-26T02:09:33.956Z,2.60
2018-03-26T02:12:07.721Z,2.60
2018-03-26T02:14:42.141Z,2.60
2018-03-26T02:17:15.888Z,2.70
2018-03-26T02:19:49.695Z,2.60
2018-03-26T02:22:23.517Z,2.60
2018-03-26T02:24:58.028Z,2.60
2018-03-26T02:27:31.682Z,2.60
2018-03-26T02:30:05.402Z,2.60
2018-03-26T02:32:39.676Z,2.70
2018-03-26T02:35:13.949Z,2.50
2018-03-26T02:37:47.854Z,2.60
2018-03-26T02:40:22.416Z,2.70
2018-03-26T02:42:57.053Z,2.80
2018-03-26T02:45:30.887Z,2.80
2018-03-26T02:48:04.613Z,2.90
2018-03-26T02:50:38.369Z,2.80
2018-03-26T02:53:12.048Z,2.90
2018-03-26T02:55:45.882Z,3.00
2018-03-26T02:58:19.675Z,3.00
2018-03-26T03:00:53.319Z,2.90
2018-03-26T03:03:27.133Z,3.00
2018-03-26T03:06:00.903Z,2.90
2018-03-26T03:08:34.683Z,3.00
2018-03-26T03:11:08.453Z,3.10
2018-03-26T03:13:42.284Z,3.10
2018-03-26T03:16:16.002Z,3.10
2018-03-26T03:18:49.782Z,3.00
2018-03-26T03:21:24.113Z,3.00
2018-03-26T03:23:57.710Z,3.00
2018-03-26T03:26:31.476Z,3.10
2018-03-26T03:29:05.281Z,3.10
2018-03-26T03:31:38.963Z,3.10
2018-03-26T03:34:14.161Z,3.10
2018-03-26T03:36:48.579Z,3.10
2018-03-26T03:39:22.321Z,3.10
2018-03-26T03:41:56.055Z,3.10
2018-03-26T03:44:29.937Z,3.00
2018-03-26T03:47:03.724Z,3.10
2018-03-26T03:49:37.647Z,3.00
2018-03-26T03:52:11.433Z,3.00
2018-03-26T03:54:45.264Z,3.10
2018-03-26T03:57:19.824Z,3.10
2018-03-26T03:59:53.656Z,3.10
2018-03-26T04:02:27.440Z,3.10
2018-03-26T04:05:01.298Z,3.00
2018-03-26T04:07:35.071Z,3.10
2018-03-26T04:10:08.967Z,3.10
2018-03-26T04:12:43.438Z,3.10
2018-03-26T04:15:17.966Z,3.10
2018-03-26T04:17:51.801Z,3.10
2018-03-26T04:20:26.329Z,3.20
2018-03-26T04:23:00.166Z,3.10
2018-03-26T04:25:34.644Z,3.20
2018-03-26T04:28:09.123Z,3.20
2018-03-26T04:30:43.581Z,3.20
2018-03-26T04:33:17.387Z,3.30
2018-03-26T04:35:51.546Z,3.30
2018-03-26T04:38:26.158Z,3.30
2018-03-26T04:40:59.792Z,3.30
2018-03-26T04:43:33.672Z,3.30
2018-03-26T04:46:07.426Z,3.30
2018-03-26T04:48:41.312Z,3.30
2018-03-26T04:51:14.933Z,3.40
2018-03-26T04:53:48.754Z,3.30
2018-03-26T04:56:22.365Z,3.30
2018-03-26T04:58:56.253Z,3.30
2018-03-26T05:01:30.444Z,3.30
2018-03-26T05:04:04.073Z,3.40
2018-03-26T05:06:37.892Z,3.30
2018-03-26T05:09:11.727Z,3.30
2018-03-26T05:11:45.518Z,3.40
2018-03-26T05:14:19.275Z,3.30
2018-03-26T05:16:53.041Z,3.40
2018-03-26T05:19:26.803Z,3.50
2018-03-26T05:22:00.561Z,3.40
2018-03-26T05:24:35.086Z,3.40
2018-03-26T05:27:08.957Z,3.40
2018-03-26T05:29:42.578Z,3.40
2018-03-26T05:32:16.568Z,3.30
2018-03-26T05:34:50.166Z,3.40
2018-03-26T05:37:24.026Z,3.40
2018-03-26T05:39:57.723Z,3.30
2018-03-26T05:42:31.375Z,3.30
2018-03-26T05:45:05.166Z,3.20
2018-03-26T05:47:39.091Z,3.30
2018-03-26T05:50:12.794Z,3.50
2018-03-26T05:52:46.727Z,3.40
2018-03-26T05:55:22.706Z,3.50
2018-03-26T05:57:56.436Z,3.50
2018-03-26T06:00:30.621Z,3.50
2018-03-26T06:03:04.334Z,3.60
2018-03-26T06:05:38.278Z,3.60
2018-03-26T06:08:12.005Z,3.60
2018-03-26T06:10:46.611Z,3.50
2018-03-26T06:13:21.052Z,3.20
2018-03-26T06:15:57.412Z,3.10
2018-03-26T06:21:26.880Z,3.30
2018-03-26T06:24:01.588Z,3.60
2018-03-26T06:26:36.055Z,3.70
2018-03-26T06:32:24.308Z,3.70
2018-03-26T06:34:58.377Z,3.90
2018-03-26T06:37:47.065Z,3.90
2018-03-26T06:40:20.860Z,4.20
2018-03-26T06:42:55.378Z,4.30
2018-03-26T06:45:29.990Z,4.30
2018-03-26T06:48:08.326Z,4.30
2018-03-26T06:50:43.625Z,4.60
2018-03-26T06:53:17.249Z,4.60
2018-03-26T06:55:50.973Z,5.40
2018-03-26T06:58:29.533Z,6.10
2018-03-26T07:07:44.521Z,9.00
2018-03-26T07:52:33.047Z,8.40
2018-03-26T07:55:12.322Z,8.30
2018-03-26T07:57:47.299Z,7.90
2018-03-26T08:00:20.921Z,8.40
2018-03-26T08:02:54.862Z,8.50
2018-03-26T08:05:33.306Z,8.40
2018-03-26T09:48:44.420Z,14.10
2018-03-26T09:51:20.101Z,13.90
2018-03-26T09:53:54.259Z,13.80
2018-03-26T09:56:28.736Z,13.60
2018-03-26T09:59:04.014Z,13.50
2018-03-26T10:04:29.335Z,13.20
2018-03-26T10:07:03.270Z,13.20
2018-03-26T10:09:37.531Z,15.40
2018-03-26T10:12:18.379Z,16.10
2018-03-26T10:14:52.907Z,16.40
2018-03-26T10:17:27.361Z,16.30
2018-03-26T10:20:04.985Z,16.20
2018-03-26T10:22:38.781Z,16.70
2018-03-26T10:25:13.259Z,16.90
2018-03-26T10:27:47.057Z,17.00
2018-03-26T10:30:20.999Z,17.70
2018-03-26T10:33:04.910Z,17.40
2018-03-26T10:38:47.441Z,13.30
2018-03-26T10:41:22.095Z,12.60
2018-03-26T10:43:56.152Z,15.40
2018-03-26T10:46:30.007Z,16.50
2018-03-26T10:49:04.892Z,16.10
2018-03-26T10:51:40.328Z,16.40
2018-03-26T10:54:13.970Z,16.40
2018-03-26T10:56:47.651Z,16.60
2018-03-26T10:59:22.148Z,17.40
2018-03-26T11:01:59.638Z,17.30
2018-03-26T11:04:33.421Z,16.10
2018-03-26T11:07:07.156Z,16.50
2018-03-26T11:09:41.129Z,16.60
2018-03-26T11:12:15.463Z,16.80
2018-03-26T11:14:49.172Z,16.80
2018-03-26T11:17:22.809Z,18.10
2018-03-26T11:19:56.578Z,16.80
2018-03-26T11:22:31.118Z,16.80
2018-03-26T11:25:05.696Z,18.00
2018-03-26T11:27:39.318Z,18.00
2018-03-26T11:30:13.187Z,17.10
2018-03-26T11:32:51.665Z,17.90
2018-03-26T11:35:26.239Z,16.50
2018-03-26T11:38:01.807Z,16.50
2018-03-26T11:40:36.428Z,17.30
2018-03-26T11:43:10.146Z,17.20
2018-03-26T11:45:47.803Z,16.90
2018-03-26T11:48:31.136Z,16.50
2018-03-26T11:51:04.950Z,14.70
2018-03-26T11:53:44.206Z,16.20
2018-03-26T11:56:17.833Z,16.20
2018-03-26T11:59:11.567Z,16.30
2018-03-26T12:30:33.044Z,20.60
2018-03-26T12:33:08.728Z,20.80
2018-03-26T12:35:58.338Z,21.30
2018-03-26T12:38:34.755Z,19.60
2018-03-26T12:41:10.786Z,19.70
2018-03-26T12:43:46.689Z,20.20
2018-03-26T15:24:39.565Z,14.80
2018-03-26T15:27:13.509Z,15.20
2018-03-26T15:29:47.478Z,15.80
2018-03-26T15:32:21.556Z,15.70
2018-03-26T15:34:55.478Z,16.20
2018-03-26T15:37:30.515Z,16.20
2018-03-26T15:40:05.530Z,15.40
2018-03-26T15:42:40.094Z,15.40
2018-03-26T15:45:14.617Z,14.50
2018-03-26T15:47:48.491Z,13.80
2018-03-26T15:50:23.051Z,15.80
2018-03-26T15:52:56.911Z,15.70
2018-03-26T15:55:34.001Z,15.80
2018-03-26T15:58:13.857Z,15.80
2018-03-26T16:00:57.084Z,15.60
2018-03-26T16:03:31.312Z,14.40
2018-03-26T16:06:05.192Z,15.00
2018-03-26T16:09:04.318Z,13.10
2018-03-26T16:11:39.250Z,12.30
2018-03-26T16:14:18.477Z,12.20
2018-03-26T16:16:52.325Z,12.30
2018-03-26T16:19:33.044Z,12.40
2018-03-26T16:22:06.957Z,11.40
2018-03-26T16:24:58.870Z,11.70
2018-03-26T16:28:48.167Z,11.60
2018-03-26T16:31:21.996Z,11.80
2018-03-26T16:33:56.170Z,12.00
2018-03-26T16:36:30.702Z,11.50
2018-03-26T16:39:05.228Z,11.50
2018-03-26T17:23:43.467Z,10.90
2018-03-26T17:26:18.825Z,8.20
2018-03-26T17:28:54.164Z,7.90
2018-03-26T17:31:32.679Z,7.90
2018-03-26T17:40:31.201Z,7.50
2018-03-26T17:43:10.021Z,7.40
2018-03-26T17:45:47.367Z,7.40
2018-03-26T17:48:36.140Z,7.30
2018-03-26T17:51:38.169Z,7.20
2018-03-26T17:57:49.770Z,7.10
2018-03-26T18:00:35.320Z,6.90
2018-03-26T18:03:13.739Z,6.90
2018-03-26T18:05:54.300Z,6.70
2018-03-26T18:08:28.450Z,6.60
2018-03-26T18:11:02.023Z,6.70
2018-03-26T18:13:36.368Z,6.60
2018-03-26T18:16:10.861Z,6.40
2018-03-26T18:18:44.545Z,6.40
2018-03-26T18:21:18.326Z,6.40
2018-03-26T18:23:52.097Z,6.30
2018-03-26T18:26:26.255Z,6.30
2018-03-26T18:29:00.570Z,6.10
2018-03-26T18:31:34.348Z,6.10
2018-03-26T18:34:08.798Z,5.90
2018-03-26T18:36:42.558Z,5.90
2018-03-26T18:39:17.985Z,6.00
2018-03-26T18:41:52.200Z,5.90
2018-03-26T18:44:26.244Z,5.90
2018-03-26T18:47:00.892Z,5.80
2018-03-26T18:49:35.464Z,5.70
2018-03-26T18:52:09.681Z,5.70
2018-03-26T18:54:43.746Z,5.70
2018-03-26T18:57:17.651Z,5.60
2018-03-26T18:59:51.923Z,5.60
2018-03-26T19:02:26.078Z,5.50
2018-03-26T19:07:57.504Z,5.40
2018-03-26T19:10:31.659Z,5.30
2018-03-26T19:13:30.523Z,5.20
2018-03-26T19:16:05.855Z,5.20
2018-03-26T19:18:40.072Z,5.20
2018-03-26T19:21:14.597Z,5.20
2018-03-26T19:23:48.917Z,5.10
2018-03-26T19:26:22.917Z,5.00
2018-03-26T19:28:57.000Z,5.00
2018-03-26T19:31:31.139Z,5.00
2018-03-26T19:34:06.136Z,4.80
2018-03-26T19:36:40.543Z,4.80
2018-03-26T19:39:15.221Z,4.80
2018-03-26T19:41:49.549Z,4.80
2018-03-26T19:44:24.464Z,4.80
2018-03-26T19:46:59.721Z,4.80
2018-03-26T19:49:33.939Z,4.70
2018-03-26T19:52:44.452Z,4.80
2018-03-26T19:55:22.135Z,4.70
2018-03-26T19:57:57.538Z,4.70
2018-03-26T20:00:39.053Z,4.70
2018-03-26T20:03:17.360Z,4.70
2018-03-26T20:05:52.277Z,4.60
2018-03-26T20:08:28.416Z,4.60
2018-03-26T20:11:04.072Z,4.50
2018-03-26T20:13:38.921Z,4.50
2018-03-26T20:16:14.253Z,4.50
2018-03-26T20:18:48.741Z,4.50
2018-03-26T20:21:23.667Z,4.40
2018-03-26T20:23:57.560Z,4.40
2018-03-26T20:26:32.037Z,4.40
2018-03-26T20:29:07.275Z,4.30
2018-03-26T20:31:44.295Z,4.30
2018-03-26T20:34:32.393Z,4.30
2018-03-26T20:37:07.097Z,4.30
2018-03-26T20:39:45.378Z,4.20
2018-03-26T20:42:20.483Z,4.20
2018-03-26T20:44:54.801Z,4.20
2018-03-26T20:47:28.986Z,4.10
2018-03-26T20:50:04.465Z,4.10
2018-03-26T20:52:39.210Z,4.10
2018-03-26T20:55:18.389Z,4.10
2018-03-26T20:57:56.540Z,4.00
2018-03-26T21:00:36.932Z,4.00
2018-03-26T21:03:11.221Z,4.00
2018-03-26T21:05:46.337Z,4.10
2018-03-26T21:08:20.055Z,4.10
2018-03-26T21:11:00.977Z,4.00
2018-03-26T21:13:35.132Z,4.00
2018-03-26T21:16:12.086Z,4.00
2018-03-26T21:18:47.043Z,4.00
2018-03-26T21:21:21.423Z,4.10
2018-03-26T21:23:55.543Z,4.10
2018-03-26T21:26:29.500Z,4.20
2018-03-26T21:29:04.328Z,4.20
2018-03-26T21:31:40.685Z,4.40
2018-03-26T21:34:14.709Z,4.30
2018-03-26T21:36:49.023Z,4.40
2018-03-26T21:39:25.047Z,4.40
2018-03-26T21:42:05.671Z,4.40
2018-03-26T21:44:41.798Z,4.40
2018-03-26T21:47:19.428Z,4.40
2018-03-26T21:50:05.121Z,4.40
2018-03-26T21:52:39.925Z,4.50
2018-03-26T21:55:14.474Z,4.50
2018-03-26T21:57:48.554Z,4.50
2018-03-26T22:00:23.629Z,4.50
2018-03-26T22:02:58.900Z,4.50
2018-03-26T22:05:33.194Z,4.50
2018-03-26T22:08:07.569Z,4.50
2018-03-26T22:10:41.289Z,4.60
2018-03-26T22:13:25.849Z,4.60
2018-03-26T22:16:00.555Z,4.70
2018-03-26T22:18:34.330Z,4.70
2018-03-26T22:21:08.011Z,4.70
2018-03-26T22:23:42.748Z,4.80
2018-03-26T22:26:17.291Z,4.80
2018-03-26T22:28:51.001Z,4.80
2018-03-26T22:31:24.927Z,4.70
2018-03-26T22:37:18.453Z,4.50
2018-03-26T22:39:58.665Z,4.60
2018-03-26T22:42:34.812Z,4.60
2018-03-26T22:45:11.483Z,4.50
2018-03-26T22:47:48.394Z,4.50
2018-03-26T22:50:24.761Z,4.50
2018-03-26T22:53:00.078Z,4.50
2018-03-26T22:55:35.831Z,4.50
2018-03-26T22:58:09.719Z,4.50
2018-03-26T23:00:44.840Z,4.10
2018-03-26T23:03:19.386Z,4.10
2018-03-26T23:05:53.686Z,4.10
2018-03-26T23:08:27.716Z,3.90
2018-03-26T23:11:03.337Z,4.00
2018-03-26T23:13:37.168Z,4.00
2018-03-26T23:16:11.680Z,4.30
2018-03-26T23:18:45.790Z,4.40
2018-03-26T23:21:20.368Z,4.30
2018-03-26T23:23:54.267Z,4.20
2018-03-26T23:26:31.266Z,4.10
2018-03-26T23:29:07.143Z,4.00
2018-03-26T23:31:46.428Z,3.90
2018-03-26T23:34:21.631Z,3.90
2018-03-26T23:36:57.543Z,3.70
2018-03-26T23:39:31.559Z,3.80
2018-03-26T23:42:07.554Z,3.70
